sensor_id;sensor_type;location;lat;lon;timestamp;P1;durP1;ratioP1;P2;durP2;ratioP2
8151;SDS011;4117;53.622;9.958;2023-02-17T00:01:25;3.97;;;2.00;;
8151;SDS011;4117;53.622;9.958;2023-02-17T00:03:54;2.63;;;1.67;;
8151;SDS011;4117;53.622;9.958;2023-02-17T00:06:22;2.47;;;1.60;;
8151;SDS011;4117;53.622;9.958;2023-02-17T00:08:50;2.23;;;1.70;;
8151;SDS011;4117;53.622;9.958;2023-02-17T00:11:17;3.20;;;1.80;;
8151;SDS011;4117;53.622;9.958;2023-02-17T00:13:45;1.70;;;1.30;;
8151;SDS011;4117;53.622;9.958;2023-02-17T00:16:14;1.73;;;1.03;;
8151;SDS011;4117;53.622;9.958;2023-02-17T00:18:43;1.77;;;1.23;;
8151;SDS011;4117;53.622;9.958;2023-02-17T00:21:11;1.73;;;1.60;;
8151;SDS011;4117;53.622;9.958;2023-02-17T00:23:39;2.57;;;1.33;;
8151;SDS011;4117;53.622;9.958;2023-02-17T00:26:06;3.07;;;1.17;;
8151;SDS011;4117;53.622;9.958;2023-02-17T00:28:34;2.23;;;1.27;;
8151;SDS011;4117;53.622;9.958;2023-02-17T00:31:04;2.30;;;2.10;;
8151;SDS011;4117;53.622;9.958;2023-02-17T00:33:33;2.10;;;1.40;;
8151;SDS011;4117;53.622;9.958;2023-02-17T00:36:04;1.73;;;1.40;;
8151;SDS011;4117;53.622;9.958;2023-02-17T00:38:33;2.57;;;1.60;;
8151;SDS011;4117;53.622;9.958;2023-02-17T00:41:00;2.30;;;1.80;;
8151;SDS011;4117;53.622;9.958;2023-02-17T00:43:27;1.90;;;1.27;;
8151;SDS011;4117;53.622;9.958;2023-02-17T00:45:54;2.50;;;1.47;;
8151;SDS011;4117;53.622;9.958;2023-02-17T00:48:22;2.03;;;1.20;;
8151;SDS011;4117;53.622;9.958;2023-02-17T00:50:50;2.73;;;1.60;;
8151;SDS011;4117;53.622;9.958;2023-02-17T00:53:17;1.53;;;1.27;;
8151;SDS011;4117;53.622;9.958;2023-02-17T00:55:44;3.63;;;1.40;;
8151;SDS011;4117;53.622;9.958;2023-02-17T00:58:12;2.60;;;1.40;;
8151;SDS011;4117;53.622;9.958;2023-02-17T01:00:39;3.47;;;1.60;;
8151;SDS011;4117;53.622;9.958;2023-02-17T01:03:06;2.20;;;1.63;;
8151;SDS011;4117;53.622;9.958;2023-02-17T01:05:38;4.10;;;1.83;;
8151;SDS011;4117;53.622;9.958;2023-02-17T01:08:07;1.70;;;1.10;;
8151;SDS011;4117;53.622;9.958;2023-02-17T01:10:35;2.67;;;1.60;;
8151;SDS011;4117;53.622;9.958;2023-02-17T01:13:03;1.87;;;1.20;;
8151;SDS011;4117;53.622;9.958;2023-02-17T01:15:30;1.70;;;1.40;;
8151;SDS011;4117;53.622;9.958;2023-02-17T01:18:01;1.83;;;1.20;;
8151;SDS011;4117;53.622;9.958;2023-02-17T01:20:28;2.13;;;1.53;;
8151;SDS011;4117;53.622;9.958;2023-02-17T01:22:58;2.10;;;1.33;;
8151;SDS011;4117;53.622;9.958;2023-02-17T01:25:27;2.40;;;1.50;;
8151;SDS011;4117;53.622;9.958;2023-02-17T01:27:54;2.27;;;1.17;;
8151;SDS011;4117;53.622;9.958;2023-02-17T01:30:21;2.47;;;1.50;;
8151;SDS011;4117;53.622;9.958;2023-02-17T01:32:48;1.63;;;1.23;;
8151;SDS011;4117;53.622;9.958;2023-02-17T01:35:15;2.00;;;1.10;;
8151;SDS011;4117;53.622;9.958;2023-02-17T01:37:42;2.30;;;1.53;;
8151;SDS011;4117;53.622;9.958;2023-02-17T01:40:10;2.17;;;1.57;;
8151;SDS011;4117;53.622;9.958;2023-02-17T01:42:40;1.33;;;0.93;;
8151;SDS011;4117;53.622;9.958;2023-02-17T01:45:08;2.50;;;1.40;;
8151;SDS011;4117;53.622;9.958;2023-02-17T01:47:57;2.23;;;1.07;;
8151;SDS011;4117;53.622;9.958;2023-02-17T01:50:29;1.50;;;1.10;;
8151;SDS011;4117;53.622;9.958;2023-02-17T01:52:57;2.47;;;1.23;;
8151;SDS011;4117;53.622;9.958;2023-02-17T01:55:26;1.73;;;1.33;;
8151;SDS011;4117;53.622;9.958;2023-02-17T01:57:56;1.27;;;1.00;;
8151;SDS011;4117;53.622;9.958;2023-02-17T02:00:25;0.97;;;0.87;;
8151;SDS011;4117;53.622;9.958;2023-02-17T02:02:54;1.80;;;1.17;;
8151;SDS011;4117;53.622;9.958;2023-02-17T02:05:22;3.50;;;1.37;;
8151;SDS011;4117;53.622;9.958;2023-02-17T02:07:50;1.73;;;1.47;;
8151;SDS011;4117;53.622;9.958;2023-02-17T02:10:17;2.03;;;1.20;;
8151;SDS011;4117;53.622;9.958;2023-02-17T02:12:45;1.30;;;0.90;;
8151;SDS011;4117;53.622;9.958;2023-02-17T02:15:14;1.47;;;1.03;;
8151;SDS011;4117;53.622;9.958;2023-02-17T02:17:44;1.30;;;1.20;;
8151;SDS011;4117;53.622;9.958;2023-02-17T02:20:41;3.33;;;0.77;;
8151;SDS011;4117;53.622;9.958;2023-02-17T02:23:39;2.80;;;1.30;;
8151;SDS011;4117;53.622;9.958;2023-02-17T02:26:37;2.60;;;0.93;;
8151;SDS011;4117;53.622;9.958;2023-02-17T02:32:54;0.87;;;0.73;;
8151;SDS011;4117;53.622;9.958;2023-02-17T02:35:27;1.47;;;0.80;;
8151;SDS011;4117;53.622;9.958;2023-02-17T02:38:00;1.20;;;1.00;;
8151;SDS011;4117;53.622;9.958;2023-02-17T02:40:31;1.67;;;0.97;;
8151;SDS011;4117;53.622;9.958;2023-02-17T02:43:02;1.93;;;1.10;;
8151;SDS011;4117;53.622;9.958;2023-02-17T02:45:30;0.83;;;0.73;;
8151;SDS011;4117;53.622;9.958;2023-02-17T02:48:00;0.80;;;0.73;;
8151;SDS011;4117;53.622;9.958;2023-02-17T02:50:32;1.80;;;0.90;;
8151;SDS011;4117;53.622;9.958;2023-02-17T02:53:17;1.17;;;1.00;;
8151;SDS011;4117;53.622;9.958;2023-02-17T02:55:57;1.03;;;0.77;;
8151;SDS011;4117;53.622;9.958;2023-02-17T02:58:31;1.07;;;0.70;;
8151;SDS011;4117;53.622;9.958;2023-02-17T03:01:08;0.50;;;0.50;;
8151;SDS011;4117;53.622;9.958;2023-02-17T03:03:44;1.43;;;1.00;;
8151;SDS011;4117;53.622;9.958;2023-02-17T03:06:19;1.13;;;0.77;;
8151;SDS011;4117;53.622;9.958;2023-02-17T03:08:52;1.67;;;0.90;;
8151;SDS011;4117;53.622;9.958;2023-02-17T03:11:24;1.07;;;0.80;;
8151;SDS011;4117;53.622;9.958;2023-02-17T03:13:58;0.87;;;0.87;;
8151;SDS011;4117;53.622;9.958;2023-02-17T03:16:27;1.47;;;1.07;;
8151;SDS011;4117;53.622;9.958;2023-02-17T03:18:55;0.90;;;0.73;;
8151;SDS011;4117;53.622;9.958;2023-02-17T03:21:22;0.30;;;0.20;;
8151;SDS011;4117;53.622;9.958;2023-02-17T03:23:52;1.70;;;1.10;;
8151;SDS011;4117;53.622;9.958;2023-02-17T03:26:19;1.17;;;1.07;;
8151;SDS011;4117;53.622;9.958;2023-02-17T03:28:46;1.00;;;0.70;;
8151;SDS011;4117;53.622;9.958;2023-02-17T03:31:13;1.10;;;0.90;;
8151;SDS011;4117;53.622;9.958;2023-02-17T03:33:40;0.60;;;0.60;;
8151;SDS011;4117;53.622;9.958;2023-02-17T03:36:08;0.97;;;0.83;;
8151;SDS011;4117;53.622;9.958;2023-02-17T03:38:35;0.70;;;0.60;;
8151;SDS011;4117;53.622;9.958;2023-02-17T03:41:01;0.90;;;0.80;;
8151;SDS011;4117;53.622;9.958;2023-02-17T03:43:29;1.33;;;1.00;;
8151;SDS011;4117;53.622;9.958;2023-02-17T03:45:55;0.63;;;0.63;;
8151;SDS011;4117;53.622;9.958;2023-02-17T03:48:22;1.20;;;1.07;;
8151;SDS011;4117;53.622;9.958;2023-02-17T03:50:49;0.70;;;0.70;;
8151;SDS011;4117;53.622;9.958;2023-02-17T03:53:18;1.37;;;0.73;;
8151;SDS011;4117;53.622;9.958;2023-02-17T03:55:44;0.80;;;0.63;;
8151;SDS011;4117;53.622;9.958;2023-02-17T03:58:11;1.43;;;1.07;;
8151;SDS011;4117;53.622;9.958;2023-02-17T04:00:38;0.63;;;0.60;;
8151;SDS011;4117;53.622;9.958;2023-02-17T04:03:05;0.80;;;0.63;;
8151;SDS011;4117;53.622;9.958;2023-02-17T04:05:32;0.70;;;0.70;;
8151;SDS011;4117;53.622;9.958;2023-02-17T04:07:59;0.20;;;0.20;;
8151;SDS011;4117;53.622;9.958;2023-02-17T04:10:27;0.50;;;0.50;;
8151;SDS011;4117;53.622;9.958;2023-02-17T04:12:54;1.10;;;0.70;;
8151;SDS011;4117;53.622;9.958;2023-02-17T04:15:21;1.10;;;1.00;;
8151;SDS011;4117;53.622;9.958;2023-02-17T04:17:48;0.77;;;0.60;;
8151;SDS011;4117;53.622;9.958;2023-02-17T04:20:14;1.23;;;0.97;;
8151;SDS011;4117;53.622;9.958;2023-02-17T04:22:41;1.70;;;0.87;;
8151;SDS011;4117;53.622;9.958;2023-02-17T04:25:10;1.57;;;1.17;;
8151;SDS011;4117;53.622;9.958;2023-02-17T04:27:38;0.80;;;0.63;;
8151;SDS011;4117;53.622;9.958;2023-02-17T04:30:05;0.50;;;0.40;;
8151;SDS011;4117;53.622;9.958;2023-02-17T04:32:33;2.53;;;1.00;;
8151;SDS011;4117;53.622;9.958;2023-02-17T04:35:00;1.03;;;0.80;;
8151;SDS011;4117;53.622;9.958;2023-02-17T04:37:27;0.80;;;0.60;;
8151;SDS011;4117;53.622;9.958;2023-02-17T04:39:54;0.77;;;0.63;;
8151;SDS011;4117;53.622;9.958;2023-02-17T04:42:20;1.30;;;0.63;;
8151;SDS011;4117;53.622;9.958;2023-02-17T04:44:49;0.93;;;0.70;;
8151;SDS011;4117;53.622;9.958;2023-02-17T04:47:15;0.60;;;0.57;;
8151;SDS011;4117;53.622;9.958;2023-02-17T04:49:42;1.17;;;0.70;;
8151;SDS011;4117;53.622;9.958;2023-02-17T04:52:09;1.43;;;0.87;;
8151;SDS011;4117;53.622;9.958;2023-02-17T04:54:36;1.20;;;0.50;;
8151;SDS011;4117;53.622;9.958;2023-02-17T04:57:03;1.13;;;0.60;;
8151;SDS011;4117;53.622;9.958;2023-02-17T04:59:30;1.07;;;0.80;;
8151;SDS011;4117;53.622;9.958;2023-02-17T05:01:58;0.87;;;0.57;;
8151;SDS011;4117;53.622;9.958;2023-02-17T05:04:25;0.90;;;0.87;;
8151;SDS011;4117;53.622;9.958;2023-02-17T05:06:52;0.67;;;0.67;;
8151;SDS011;4117;53.622;9.958;2023-02-17T05:09:19;1.80;;;0.90;;
8151;SDS011;4117;53.622;9.958;2023-02-17T05:11:45;0.67;;;0.43;;
8151;SDS011;4117;53.622;9.958;2023-02-17T05:14:12;1.77;;;0.70;;
8151;SDS011;4117;53.622;9.958;2023-02-17T05:16:39;1.00;;;0.77;;
8151;SDS011;4117;53.622;9.958;2023-02-17T05:19:08;0.87;;;0.57;;
8151;SDS011;4117;53.622;9.958;2023-02-17T05:21:35;0.80;;;0.63;;
8151;SDS011;4117;53.622;9.958;2023-02-17T05:24:02;0.43;;;0.37;;
8151;SDS011;4117;53.622;9.958;2023-02-17T05:26:29;1.13;;;0.60;;
8151;SDS011;4117;53.622;9.958;2023-02-17T05:28:56;1.23;;;0.80;;
8151;SDS011;4117;53.622;9.958;2023-02-17T05:31:23;0.40;;;0.40;;
8151;SDS011;4117;53.622;9.958;2023-02-17T05:33:49;2.53;;;1.17;;
8151;SDS011;4117;53.622;9.958;2023-02-17T05:36:19;0.77;;;0.60;;
8151;SDS011;4117;53.622;9.958;2023-02-17T05:38:46;1.13;;;0.67;;
8151;SDS011;4117;53.622;9.958;2023-02-17T05:41:15;1.40;;;0.67;;
8151;SDS011;4117;53.622;9.958;2023-02-17T05:43:42;1.00;;;0.90;;
8151;SDS011;4117;53.622;9.958;2023-02-17T05:46:09;3.13;;;0.83;;
8151;SDS011;4117;53.622;9.958;2023-02-17T05:48:36;0.70;;;0.50;;
8151;SDS011;4117;53.622;9.958;2023-02-17T05:51:04;1.13;;;0.80;;
8151;SDS011;4117;53.622;9.958;2023-02-17T05:53:33;1.53;;;1.03;;
8151;SDS011;4117;53.622;9.958;2023-02-17T05:55:59;0.43;;;0.40;;
8151;SDS011;4117;53.622;9.958;2023-02-17T05:58:26;0.57;;;0.57;;
8151;SDS011;4117;53.622;9.958;2023-02-17T06:00:54;2.10;;;0.80;;
8151;SDS011;4117;53.622;9.958;2023-02-17T06:03:20;1.27;;;0.73;;
8151;SDS011;4117;53.622;9.958;2023-02-17T06:05:47;0.93;;;0.87;;
8151;SDS011;4117;53.622;9.958;2023-02-17T06:08:14;0.97;;;0.67;;
8151;SDS011;4117;53.622;9.958;2023-02-17T06:10:42;1.30;;;0.83;;
8151;SDS011;4117;53.622;9.958;2023-02-17T06:13:09;2.67;;;1.10;;
8151;SDS011;4117;53.622;9.958;2023-02-17T06:15:36;1.57;;;0.87;;
8151;SDS011;4117;53.622;9.958;2023-02-17T06:18:03;1.37;;;0.70;;
8151;SDS011;4117;53.622;9.958;2023-02-17T06:20:30;1.77;;;0.60;;
8151;SDS011;4117;53.622;9.958;2023-02-17T06:22:57;1.23;;;0.80;;
8151;SDS011;4117;53.622;9.958;2023-02-17T06:25:24;2.27;;;1.00;;
8151;SDS011;4117;53.622;9.958;2023-02-17T06:27:52;1.43;;;1.07;;
8151;SDS011;4117;53.622;9.958;2023-02-17T06:30:19;1.47;;;0.90;;
8151;SDS011;4117;53.622;9.958;2023-02-17T06:32:47;1.63;;;0.90;;
8151;SDS011;4117;53.622;9.958;2023-02-17T06:35:14;0.70;;;0.70;;
8151;SDS011;4117;53.622;9.958;2023-02-17T06:37:41;1.37;;;0.90;;
8151;SDS011;4117;53.622;9.958;2023-02-17T06:40:09;1.67;;;0.80;;
8151;SDS011;4117;53.622;9.958;2023-02-17T06:42:36;1.97;;;0.67;;
8151;SDS011;4117;53.622;9.958;2023-02-17T06:45:05;0.80;;;0.73;;
8151;SDS011;4117;53.622;9.958;2023-02-17T06:47:33;2.23;;;1.07;;
8151;SDS011;4117;53.622;9.958;2023-02-17T06:50:00;1.73;;;1.07;;
8151;SDS011;4117;53.622;9.958;2023-02-17T06:52:27;0.90;;;0.70;;
8151;SDS011;4117;53.622;9.958;2023-02-17T06:54:54;1.77;;;1.30;;
8151;SDS011;4117;53.622;9.958;2023-02-17T06:57:21;1.83;;;1.33;;
8151;SDS011;4117;53.622;9.958;2023-02-17T06:59:48;3.80;;;1.00;;
8151;SDS011;4117;53.622;9.958;2023-02-17T07:02:16;3.17;;;1.50;;
8151;SDS011;4117;53.622;9.958;2023-02-17T07:04:43;2.03;;;1.07;;
8151;SDS011;4117;53.622;9.958;2023-02-17T07:07:10;1.77;;;1.17;;
8151;SDS011;4117;53.622;9.958;2023-02-17T07:09:37;2.00;;;1.47;;
8151;SDS011;4117;53.622;9.958;2023-02-17T07:12:05;2.00;;;0.80;;
8151;SDS011;4117;53.622;9.958;2023-02-17T07:14:33;3.07;;;1.20;;
8151;SDS011;4117;53.622;9.958;2023-02-17T07:17:00;0.83;;;0.73;;
8151;SDS011;4117;53.622;9.958;2023-02-17T07:19:29;1.33;;;0.90;;
8151;SDS011;4117;53.622;9.958;2023-02-17T07:21:56;2.60;;;1.17;;
8151;SDS011;4117;53.622;9.958;2023-02-17T07:24:23;3.67;;;1.53;;
8151;SDS011;4117;53.622;9.958;2023-02-17T07:26:50;3.23;;;1.27;;
8151;SDS011;4117;53.622;9.958;2023-02-17T07:29:20;2.07;;;0.90;;
8151;SDS011;4117;53.622;9.958;2023-02-17T07:31:47;1.23;;;0.57;;
8151;SDS011;4117;53.622;9.958;2023-02-17T07:34:13;2.27;;;1.20;;
8151;SDS011;4117;53.622;9.958;2023-02-17T07:36:42;2.97;;;1.10;;
8151;SDS011;4117;53.622;9.958;2023-02-17T07:39:09;1.50;;;1.00;;
8151;SDS011;4117;53.622;9.958;2023-02-17T07:41:36;1.93;;;1.20;;
8151;SDS011;4117;53.622;9.958;2023-02-17T07:44:02;1.50;;;0.80;;
8151;SDS011;4117;53.622;9.958;2023-02-17T07:46:30;1.40;;;0.80;;
8151;SDS011;4117;53.622;9.958;2023-02-17T07:48:56;2.63;;;1.00;;
8151;SDS011;4117;53.622;9.958;2023-02-17T07:51:24;3.13;;;1.50;;
8151;SDS011;4117;53.622;9.958;2023-02-17T07:53:52;1.60;;;1.10;;
8151;SDS011;4117;53.622;9.958;2023-02-17T07:56:20;1.23;;;0.80;;
8151;SDS011;4117;53.622;9.958;2023-02-17T07:58:48;1.50;;;0.80;;
8151;SDS011;4117;53.622;9.958;2023-02-17T08:01:16;2.20;;;1.07;;
8151;SDS011;4117;53.622;9.958;2023-02-17T08:03:45;1.20;;;0.87;;
8151;SDS011;4117;53.622;9.958;2023-02-17T08:06:13;2.57;;;1.07;;
8151;SDS011;4117;53.622;9.958;2023-02-17T08:08:41;1.83;;;1.20;;
8151;SDS011;4117;53.622;9.958;2023-02-17T08:11:27;1.40;;;1.00;;
8151;SDS011;4117;53.622;9.958;2023-02-17T08:14:12;2.87;;;1.30;;
8151;SDS011;4117;53.622;9.958;2023-02-17T08:16:39;4.27;;;1.63;;
8151;SDS011;4117;53.622;9.958;2023-02-17T08:19:06;1.10;;;0.90;;
8151;SDS011;4117;53.622;9.958;2023-02-17T08:21:33;1.73;;;0.93;;
8151;SDS011;4117;53.622;9.958;2023-02-17T08:24:00;3.30;;;1.00;;
8151;SDS011;4117;53.622;9.958;2023-02-17T08:26:29;3.30;;;1.10;;
8151;SDS011;4117;53.622;9.958;2023-02-17T08:28:56;1.10;;;0.80;;
8151;SDS011;4117;53.622;9.958;2023-02-17T08:31:24;1.83;;;1.03;;
8151;SDS011;4117;53.622;9.958;2023-02-17T08:33:53;2.13;;;1.40;;
8151;SDS011;4117;53.622;9.958;2023-02-17T08:36:21;1.37;;;0.97;;
8151;SDS011;4117;53.622;9.958;2023-02-17T08:38:49;2.93;;;1.00;;
8151;SDS011;4117;53.622;9.958;2023-02-17T08:41:17;2.80;;;1.07;;
8151;SDS011;4117;53.622;9.958;2023-02-17T08:43:46;1.40;;;0.60;;
8151;SDS011;4117;53.622;9.958;2023-02-17T08:46:14;2.83;;;0.83;;
8151;SDS011;4117;53.622;9.958;2023-02-17T08:48:41;3.13;;;1.13;;
8151;SDS011;4117;53.622;9.958;2023-02-17T08:51:10;1.10;;;0.97;;
8151;SDS011;4117;53.622;9.958;2023-02-17T08:53:38;1.60;;;0.90;;
8151;SDS011;4117;53.622;9.958;2023-02-17T08:56:05;0.40;;;0.40;;
8151;SDS011;4117;53.622;9.958;2023-02-17T08:58:32;1.57;;;1.03;;
8151;SDS011;4117;53.622;9.958;2023-02-17T09:01:01;1.37;;;1.00;;
8151;SDS011;4117;53.622;9.958;2023-02-17T09:03:29;1.23;;;0.73;;
8151;SDS011;4117;53.622;9.958;2023-02-17T09:05:58;1.80;;;1.10;;
8151;SDS011;4117;53.622;9.958;2023-02-17T09:08:26;0.47;;;0.47;;
8151;SDS011;4117;53.622;9.958;2023-02-17T09:10:55;0.83;;;0.70;;
8151;SDS011;4117;53.622;9.958;2023-02-17T09:13:27;0.43;;;0.40;;
8151;SDS011;4117;53.622;9.958;2023-02-17T09:15:55;1.73;;;0.73;;
8151;SDS011;4117;53.622;9.958;2023-02-17T09:18:23;2.83;;;0.90;;
8151;SDS011;4117;53.622;9.958;2023-02-17T09:20:53;1.40;;;0.97;;
8151;SDS011;4117;53.622;9.958;2023-02-17T09:23:20;1.13;;;1.00;;
8151;SDS011;4117;53.622;9.958;2023-02-17T09:25:47;1.20;;;0.93;;
8151;SDS011;4117;53.622;9.958;2023-02-17T09:28:15;1.73;;;1.03;;
8151;SDS011;4117;53.622;9.958;2023-02-17T09:30:42;2.50;;;0.40;;
8151;SDS011;4117;53.622;9.958;2023-02-17T09:33:11;1.27;;;0.97;;
8151;SDS011;4117;53.622;9.958;2023-02-17T09:35:39;0.83;;;0.57;;
8151;SDS011;4117;53.622;9.958;2023-02-17T09:38:09;1.70;;;1.43;;
8151;SDS011;4117;53.622;9.958;2023-02-17T09:40:42;0.83;;;0.73;;
8151;SDS011;4117;53.622;9.958;2023-02-17T09:43:13;2.97;;;1.33;;
8151;SDS011;4117;53.622;9.958;2023-02-17T09:45:45;1.43;;;0.70;;
8151;SDS011;4117;53.622;9.958;2023-02-17T09:48:16;1.77;;;0.80;;
8151;SDS011;4117;53.622;9.958;2023-02-17T09:50:49;0.80;;;0.70;;
8151;SDS011;4117;53.622;9.958;2023-02-17T09:53:21;1.13;;;0.90;;
8151;SDS011;4117;53.622;9.958;2023-02-17T09:55:53;0.70;;;0.60;;
8151;SDS011;4117;53.622;9.958;2023-02-17T09:58:23;1.33;;;0.70;;
8151;SDS011;4117;53.622;9.958;2023-02-17T10:00:54;1.30;;;0.67;;
8151;SDS011;4117;53.622;9.958;2023-02-17T10:03:24;2.10;;;0.80;;
8151;SDS011;4117;53.622;9.958;2023-02-17T10:06:00;1.57;;;0.70;;
8151;SDS011;4117;53.622;9.958;2023-02-17T10:08:37;1.17;;;1.03;;
8151;SDS011;4117;53.622;9.958;2023-02-17T10:11:12;1.13;;;0.80;;
8151;SDS011;4117;53.622;9.958;2023-02-17T10:13:45;0.70;;;0.57;;
8151;SDS011;4117;53.622;9.958;2023-02-17T10:16:14;1.50;;;0.63;;
8151;SDS011;4117;53.622;9.958;2023-02-17T10:18:48;0.67;;;0.47;;
8151;SDS011;4117;53.622;9.958;2023-02-17T10:21:26;1.10;;;0.53;;
8151;SDS011;4117;53.622;9.958;2023-02-17T10:23:58;2.53;;;0.97;;
8151;SDS011;4117;53.622;9.958;2023-02-17T10:26:29;0.83;;;0.73;;
8151;SDS011;4117;53.622;9.958;2023-02-17T10:29:19;0.90;;;0.83;;
8151;SDS011;4117;53.622;9.958;2023-02-17T10:32:00;2.93;;;0.97;;
8151;SDS011;4117;53.622;9.958;2023-02-17T10:34:40;2.03;;;1.43;;
8151;SDS011;4117;53.622;9.958;2023-02-17T10:37:22;1.37;;;0.77;;
8151;SDS011;4117;53.622;9.958;2023-02-17T10:39:55;2.33;;;1.00;;
8151;SDS011;4117;53.622;9.958;2023-02-17T10:42:26;1.57;;;1.10;;
8151;SDS011;4117;53.622;9.958;2023-02-17T10:44:58;1.07;;;0.77;;
8151;SDS011;4117;53.622;9.958;2023-02-17T10:47:28;2.50;;;0.70;;
8151;SDS011;4117;53.622;9.958;2023-02-17T10:49:56;1.70;;;0.80;;
8151;SDS011;4117;53.622;9.958;2023-02-17T10:52:31;1.13;;;0.90;;
8151;SDS011;4117;53.622;9.958;2023-02-17T10:55:03;0.73;;;0.67;;
8151;SDS011;4117;53.622;9.958;2023-02-17T10:57:35;0.80;;;0.70;;
8151;SDS011;4117;53.622;9.958;2023-02-17T11:00:06;0.40;;;0.40;;
8151;SDS011;4117;53.622;9.958;2023-02-17T11:02:40;3.00;;;0.60;;
8151;SDS011;4117;53.622;9.958;2023-02-17T11:05:18;0.70;;;0.20;;
8151;SDS011;4117;53.622;9.958;2023-02-17T11:07:51;0.50;;;0.50;;
8151;SDS011;4117;53.622;9.958;2023-02-17T11:10:23;1.63;;;0.60;;
8151;SDS011;4117;53.622;9.958;2023-02-17T11:12:53;0.70;;;0.57;;
8151;SDS011;4117;53.622;9.958;2023-02-17T11:15:25;0.63;;;0.40;;
8151;SDS011;4117;53.622;9.958;2023-02-17T11:17:55;1.07;;;0.63;;
8151;SDS011;4117;53.622;9.958;2023-02-17T11:20:28;0.50;;;0.43;;
8151;SDS011;4117;53.622;9.958;2023-02-17T11:23:03;0.77;;;0.77;;
8151;SDS011;4117;53.622;9.958;2023-02-17T11:25:34;0.73;;;0.67;;
8151;SDS011;4117;53.622;9.958;2023-02-17T11:28:03;0.50;;;0.40;;
8151;SDS011;4117;53.622;9.958;2023-02-17T11:30:33;1.10;;;0.80;;
8151;SDS011;4117;53.622;9.958;2023-02-17T11:33:09;1.27;;;0.63;;
8151;SDS011;4117;53.622;9.958;2023-02-17T11:35:44;2.37;;;0.77;;
8151;SDS011;4117;53.622;9.958;2023-02-17T11:38:16;1.13;;;0.50;;
8151;SDS011;4117;53.622;9.958;2023-02-17T11:40:52;1.60;;;0.87;;
8151;SDS011;4117;53.622;9.958;2023-02-17T11:43:21;0.70;;;0.70;;
8151;SDS011;4117;53.622;9.958;2023-02-17T11:45:50;1.33;;;0.53;;
8151;SDS011;4117;53.622;9.958;2023-02-17T11:48:32;1.87;;;0.70;;
8151;SDS011;4117;53.622;9.958;2023-02-17T11:51:16;1.77;;;0.80;;
8151;SDS011;4117;53.622;9.958;2023-02-17T11:53:52;1.10;;;0.73;;
8151;SDS011;4117;53.622;9.958;2023-02-17T11:56:29;1.77;;;1.07;;
8151;SDS011;4117;53.622;9.958;2023-02-17T11:59:08;2.60;;;0.77;;
8151;SDS011;4117;53.622;9.958;2023-02-17T12:02:06;2.30;;;0.57;;
8151;SDS011;4117;53.622;9.958;2023-02-17T12:04:45;1.97;;;0.83;;
8151;SDS011;4117;53.622;9.958;2023-02-17T12:07:35;2.07;;;0.57;;
8151;SDS011;4117;53.622;9.958;2023-02-17T12:10:15;0.50;;;0.47;;
8151;SDS011;4117;53.622;9.958;2023-02-17T12:12:57;1.03;;;0.60;;
8151;SDS011;4117;53.622;9.958;2023-02-17T12:15:33;0.73;;;0.40;;
8151;SDS011;4117;53.622;9.958;2023-02-17T12:18:18;1.27;;;0.70;;
8151;SDS011;4117;53.622;9.958;2023-02-17T12:20:55;0.97;;;0.90;;
8151;SDS011;4117;53.622;9.958;2023-02-17T12:23:32;2.80;;;0.80;;
8151;SDS011;4117;53.622;9.958;2023-02-17T12:26:20;2.10;;;0.73;;
8151;SDS011;4117;53.622;9.958;2023-02-17T12:28:59;1.57;;;0.80;;
8151;SDS011;4117;53.622;9.958;2023-02-17T12:31:52;0.40;;;0.40;;
8151;SDS011;4117;53.622;9.958;2023-02-17T12:34:28;1.13;;;0.67;;
8151;SDS011;4117;53.622;9.958;2023-02-17T12:36:57;0.30;;;0.30;;
8151;SDS011;4117;53.622;9.958;2023-02-17T12:39:25;0.93;;;0.53;;
8151;SDS011;4117;53.622;9.958;2023-02-17T12:41:59;2.93;;;0.63;;
8151;SDS011;4117;53.622;9.958;2023-02-17T12:44:31;0.83;;;0.70;;
8151;SDS011;4117;53.622;9.958;2023-02-17T12:47:05;1.00;;;0.57;;
8151;SDS011;4117;53.622;9.958;2023-02-17T12:49:38;0.50;;;0.50;;
8151;SDS011;4117;53.622;9.958;2023-02-17T12:52:09;0.80;;;0.40;;
8151;SDS011;4117;53.622;9.958;2023-02-17T12:54:42;1.47;;;0.60;;
8151;SDS011;4117;53.622;9.958;2023-02-17T12:57:17;0.67;;;0.50;;
8151;SDS011;4117;53.622;9.958;2023-02-17T12:59:47;1.00;;;0.20;;
8151;SDS011;4117;53.622;9.958;2023-02-17T13:02:16;0.10;;;0.10;;
8151;SDS011;4117;53.622;9.958;2023-02-17T13:04:46;0.70;;;0.40;;
8151;SDS011;4117;53.622;9.958;2023-02-17T13:07:18;0.50;;;0.50;;
8151;SDS011;4117;53.622;9.958;2023-02-17T13:10:19;0.63;;;0.30;;
8151;SDS011;4117;53.622;9.958;2023-02-17T13:12:57;0.23;;;0.23;;
8151;SDS011;4117;53.622;9.958;2023-02-17T13:18:12;0.57;;;0.43;;
8151;SDS011;4117;53.622;9.958;2023-02-17T13:20:53;0.90;;;0.30;;
8151;SDS011;4117;53.622;9.958;2023-02-17T13:23:33;0.40;;;0.40;;
8151;SDS011;4117;53.622;9.958;2023-02-17T13:29:17;0.40;;;0.40;;
8151;SDS011;4117;53.622;9.958;2023-02-17T13:31:48;0.50;;;0.40;;
8151;SDS011;4117;53.622;9.958;2023-02-17T13:34:28;0.50;;;0.50;;
8151;SDS011;4117;53.622;9.958;2023-02-17T13:36:57;0.50;;;0.50;;
8151;SDS011;4117;53.622;9.958;2023-02-17T13:39:30;0.70;;;0.70;;
8151;SDS011;4117;53.622;9.958;2023-02-17T13:41:59;0.70;;;0.57;;
8151;SDS011;4117;53.622;9.958;2023-02-17T13:44:29;0.57;;;0.50;;
8151;SDS011;4117;53.622;9.958;2023-02-17T13:46:58;0.70;;;0.70;;
8151;SDS011;4117;53.622;9.958;2023-02-17T13:49:28;0.57;;;0.40;;
8151;SDS011;4117;53.622;9.958;2023-02-17T13:52:15;0.73;;;0.60;;
8151;SDS011;4117;53.622;9.958;2023-02-17T13:54:50;0.47;;;0.47;;
8151;SDS011;4117;53.622;9.958;2023-02-17T13:57:25;0.30;;;0.30;;
8151;SDS011;4117;53.622;9.958;2023-02-17T14:00:04;0.80;;;0.40;;
8151;SDS011;4117;53.622;9.958;2023-02-17T14:02:33;1.27;;;0.63;;
8151;SDS011;4117;53.622;9.958;2023-02-17T14:05:08;0.53;;;0.43;;
8151;SDS011;4117;53.622;9.958;2023-02-17T14:07:41;0.40;;;0.40;;
8151;SDS011;4117;53.622;9.958;2023-02-17T14:10:15;0.40;;;0.40;;
8151;SDS011;4117;53.622;9.958;2023-02-17T14:12:46;0.60;;;0.60;;
8151;SDS011;4117;53.622;9.958;2023-02-17T14:15:16;0.57;;;0.40;;
8151;SDS011;4117;53.622;9.958;2023-02-17T14:17:44;1.60;;;0.37;;
8151;SDS011;4117;53.622;9.958;2023-02-17T14:20:23;0.20;;;0.20;;
8151;SDS011;4117;53.622;9.958;2023-02-17T14:22:58;0.17;;;0.17;;
8151;SDS011;4117;53.622;9.958;2023-02-17T14:25:27;0.93;;;0.53;;
8151;SDS011;4117;53.622;9.958;2023-02-17T14:27:55;0.23;;;0.23;;
8151;SDS011;4117;53.622;9.958;2023-02-17T14:30:31;0.10;;;0.10;;
8151;SDS011;4117;53.622;9.958;2023-02-17T14:33:00;0.20;;;0.20;;
8151;SDS011;4117;53.622;9.958;2023-02-17T14:35:32;0.20;;;0.20;;
8151;SDS011;4117;53.622;9.958;2023-02-17T14:38:09;0.30;;;0.30;;
8151;SDS011;4117;53.622;9.958;2023-02-17T14:40:46;0.10;;;0.10;;
8151;SDS011;4117;53.622;9.958;2023-02-17T14:43:12;0.30;;;0.30;;
8151;SDS011;4117;53.622;9.958;2023-02-17T14:45:41;0.40;;;0.40;;
8151;SDS011;4117;53.622;9.958;2023-02-17T14:48:08;2.93;;;0.27;;
8151;SDS011;4117;53.622;9.958;2023-02-17T14:50:35;0.60;;;0.43;;
8151;SDS011;4117;53.622;9.958;2023-02-17T14:53:08;0.23;;;0.23;;
8151;SDS011;4117;53.622;9.958;2023-02-17T14:55:37;0.10;;;0.10;;
8151;SDS011;4117;53.622;9.958;2023-02-17T14:58:09;0.40;;;0.40;;
8151;SDS011;4117;53.622;9.958;2023-02-17T15:00:45;7.93;;;0.93;;
8151;SDS011;4117;53.622;9.958;2023-02-17T15:03:12;0.77;;;0.17;;
8151;SDS011;4117;53.622;9.958;2023-02-17T15:05:39;0.50;;;0.50;;
8151;SDS011;4117;53.622;9.958;2023-02-17T15:08:07;0.40;;;0.13;;
8151;SDS011;4117;53.622;9.958;2023-02-17T15:10:36;1.13;;;0.30;;
8151;SDS011;4117;53.622;9.958;2023-02-17T15:13:04;0.80;;;0.50;;
8151;SDS011;4117;53.622;9.958;2023-02-17T15:15:31;0.77;;;0.70;;
8151;SDS011;4117;53.622;9.958;2023-02-17T15:17:59;0.20;;;0.20;;
8151;SDS011;4117;53.622;9.958;2023-02-17T15:20:26;5.60;;;0.77;;
8151;SDS011;4117;53.622;9.958;2023-02-17T15:22:53;1.10;;;0.53;;
8151;SDS011;4117;53.622;9.958;2023-02-17T15:25:22;0.10;;;0.10;;
8151;SDS011;4117;53.622;9.958;2023-02-17T15:27:49;0.63;;;0.23;;
8151;SDS011;4117;53.622;9.958;2023-02-17T15:30:17;2.03;;;0.20;;
8151;SDS011;4117;53.622;9.958;2023-02-17T15:32:45;4.50;;;0.40;;
8151;SDS011;4117;53.622;9.958;2023-02-17T15:35:15;0.50;;;0.20;;
8151;SDS011;4117;53.622;9.958;2023-02-17T15:37:43;2.80;;;0.50;;
8151;SDS011;4117;53.622;9.958;2023-02-17T15:40:12;0.40;;;0.37;;
8151;SDS011;4117;53.622;9.958;2023-02-17T15:42:40;0.10;;;0.10;;
8151;SDS011;4117;53.622;9.958;2023-02-17T15:45:09;0.93;;;0.50;;